createdAt,value
2017-08-14T00:00:09.087Z,22.41
2017-08-14T00:01:19.473Z,22.36
2017-08-14T00:02:29.873Z,22.31
2017-08-14T00:03:39.585Z,22.41
2017-08-14T00:04:49.619Z,22.31
2017-08-14T00:05:59.972Z,22.41
2017-08-14T00:07:10.328Z,22.3
2017-08-14T00:08:20.419Z,22.34
2017-08-14T00:09:30.792Z,22.33
2017-08-14T00:10:41.149Z,22.33
2017-08-14T00:11:51.170Z,22.27
2017-08-14T00:13:01.216Z,22.27
2017-08-14T00:14:10.983Z,22.23
2017-08-14T00:15:21.349Z,22.18
2017-08-14T00:16:31.401Z,22.26
2017-08-14T00:17:41.429Z,22.2
2017-08-14T00:18:51.776Z,22.24
2017-08-14T00:20:01.873Z,22.29
2017-08-14T00:21:12.239Z,22.14
2017-08-14T00:22:22.585Z,22.14
2017-08-14T00:23:32.618Z,22.23
2017-08-14T00:24:42.653Z,22.2
2017-08-14T00:25:52.746Z,22.2
2017-08-14T00:27:03.115Z,22.16
2017-08-14T00:28:13.479Z,22.2
2017-08-14T00:29:23.836Z,22.18
2017-08-14T00:30:34.189Z,22.15
2017-08-14T00:31:44.278Z,22.12
2017-08-14T00:32:54.627Z,22.14
2017-08-14T00:34:04.661Z,22.26
2017-08-14T00:35:14.711Z,22.16
2017-08-14T00:36:24.737Z,22.12
2017-08-14T00:37:35.145Z,22.16
2017-08-14T00:38:45.511Z,22.16
2017-08-14T00:39:55.864Z,22.14
2017-08-14T00:41:06.216Z,22.16
2017-08-14T00:42:16.560Z,22.14
2017-08-14T00:43:26.652Z,22.14
2017-08-14T00:44:37.005Z,22.24
2017-08-14T00:45:47.037Z,22.3
2017-08-14T00:46:57.384Z,22.31
2017-08-14T00:48:07.726Z,22.3
2017-08-14T00:49:18.115Z,22.29
2017-08-14T00:50:28.469Z,22.34
2017-08-14T00:51:38.809Z,22.38
2017-08-14T00:52:49.170Z,22.44
2017-08-14T00:54:01.367Z,22.41
2017-08-14T00:55:11.455Z,22.48
2017-08-14T00:56:21.796Z,22.51
2017-08-14T00:57:31.834Z,22.57
2017-08-14T00:58:42.189Z,22.46
2017-08-14T00:59:52.538Z,22.57
2017-08-14T01:01:02.931Z,22.59
2017-08-14T01:02:13.007Z,22.57
2017-08-14T01:03:23.347Z,22.57
2017-08-14T01:04:33.703Z,22.55
2017-08-14T01:05:43.756Z,22.57
2017-08-14T01:06:54.141Z,22.49
2017-08-14T01:08:05.090Z,22.52
2017-08-14T01:09:14.823Z,22.6
2017-08-14T01:10:25.198Z,22.54
2017-08-14T01:11:35.228Z,22.6
2017-08-14T01:12:45.617Z,22.51
2017-08-14T01:13:55.338Z,22.51
2017-08-14T01:15:05.386Z,22.55
2017-08-14T01:16:15.728Z,22.57
2017-08-14T01:17:26.081Z,22.52
2017-08-14T01:18:36.496Z,22.49
2017-08-14T01:19:46.833Z,22.36
2017-08-14T01:20:57.201Z,22.42
2017-08-14T01:22:07.264Z,22.44
2017-08-14T01:23:17.615Z,22.44
2017-08-14T01:24:28.009Z,22.42
2017-08-14T01:25:38.352Z,22.33
2017-08-14T01:26:48.684Z,22.34
2017-08-14T01:27:59.031Z,22.44
2017-08-14T01:29:09.379Z,22.34
2017-08-14T01:30:19.473Z,22.34
2017-08-14T01:31:29.808Z,22.41
2017-08-14T01:32:40.167Z,22.36
2017-08-14T01:33:50.199Z,22.29
2017-08-14T01:35:00.538Z,22.31
2017-08-14T01:36:10.936Z,22.29
2017-08-14T01:37:21.295Z,22.41
2017-08-14T01:38:31.627Z,22.23
2017-08-14T01:39:41.980Z,22.3
2017-08-14T01:40:52.320Z,22.27
2017-08-14T01:42:02.392Z,22.29
2017-08-14T01:43:12.734Z,22.26
2017-08-14T01:44:22.784Z,22.27
2017-08-14T01:45:32.842Z,22.23
2017-08-14T01:46:43.199Z,22.2
2017-08-14T01:47:52.969Z,22.16
2017-08-14T01:49:03.307Z,22.15
2017-08-14T01:50:13.343Z,22.15
2017-08-14T01:51:23.708Z,22.22
2017-08-14T01:52:33.432Z,22.2
2017-08-14T01:53:43.197Z,22.16
2017-08-14T01:54:52.925Z,22.09
2017-08-14T01:56:03.277Z,22.16
2017-08-14T01:57:13.313Z,22.15
2017-08-14T01:58:23.345Z,22.23
2017-08-14T01:59:33.728Z,22.29
2017-08-14T02:00:44.075Z,22.27
2017-08-14T02:01:54.427Z,22.22
2017-08-14T02:03:04.492Z,22.31
2017-08-14T02:04:14.235Z,22.33
2017-08-14T02:05:24.636Z,22.3
2017-08-14T02:06:34.384Z,22.27
2017-08-14T02:07:44.745Z,22.29
2017-08-14T02:08:54.487Z,22.31
2017-08-14T02:10:04.527Z,22.45
2017-08-14T02:11:14.304Z,22.38
2017-08-14T02:12:26.702Z,22.41
2017-08-14T02:13:36.117Z,22.42
2017-08-14T02:14:46.458Z,22.42
2017-08-14T02:15:56.817Z,22.36
2017-08-14T02:17:07.223Z,22.44
2017-08-14T02:18:17.570Z,22.39
2017-08-14T02:19:27.917Z,22.52
2017-08-14T02:20:38.265Z,22.45
2017-08-14T02:21:48.599Z,22.48
2017-08-14T02:22:58.683Z,22.51
2017-08-14T02:24:08.721Z,22.46
2017-08-14T02:25:19.098Z,22.39
2017-08-14T02:26:29.432Z,22.38
2017-08-14T02:27:39.799Z,22.38
2017-08-14T02:28:49.909Z,22.38
2017-08-14T02:30:00.522Z,22.24
2017-08-14T02:31:10.877Z,22.33
2017-08-14T02:32:20.607Z,22.27
2017-08-14T02:33:30.971Z,22.34
2017-08-14T02:34:41.372Z,22.16
2017-08-14T02:35:51.422Z,22.22
2017-08-14T02:37:01.767Z,22.14
2017-08-14T02:38:11.806Z,22.08
2017-08-14T02:39:21.847Z,22.08
2017-08-14T02:40:32.241Z,21.94
2017-08-14T02:41:42.286Z,22.09
2017-08-14T02:42:51.994Z,22.09
2017-08-14T02:44:02.037Z,22.08
2017-08-14T02:45:12.409Z,21.97
2017-08-14T02:46:22.508Z,22
2017-08-14T02:47:32.874Z,21.96
2017-08-14T02:48:42.925Z,21.82
2017-08-14T02:49:52.959Z,21.85
2017-08-14T02:51:02.982Z,21.83
2017-08-14T02:52:13.390Z,21.89
2017-08-14T02:53:23.744Z,21.8
2017-08-14T02:54:34.081Z,21.9
2017-08-14T02:55:44.119Z,21.85
2017-08-14T02:56:54.161Z,21.76
2017-08-14T02:58:04.563Z,21.76
2017-08-14T02:59:14.900Z,21.71
2017-08-14T03:00:25.255Z,21.61
2017-08-14T03:01:35.598Z,21.61
2017-08-14T03:33:14.184Z,18.44
2017-08-14T03:34:24.441Z,18.45
2017-08-14T03:35:34.167Z,18.45
2017-08-14T03:36:43.874Z,18.44
2017-08-14T03:37:53.921Z,18.49
2017-08-14T03:39:04.313Z,18.54
2017-08-14T03:40:14.646Z,18.57
2017-08-14T03:41:24.994Z,18.75
2017-08-14T03:42:35.340Z,18.87
2017-08-14T03:43:45.371Z,19.06
2017-08-14T03:44:55.743Z,19.09
2017-08-14T03:46:05.768Z,19.3
2017-08-14T03:47:16.100Z,19.45
2017-08-14T03:48:26.121Z,19.55
2017-08-14T03:49:36.464Z,19.65
2017-08-14T03:50:46.885Z,19.75
2017-08-14T03:51:57.238Z,19.8
2017-08-14T03:53:07.274Z,19.97
2017-08-14T03:54:17.314Z,20.01
2017-08-14T03:55:27.653Z,20.04
2017-08-14T03:56:37.744Z,20.1
2017-08-14T03:57:48.090Z,20.1
2017-08-14T03:58:58.420Z,20.26
2017-08-14T04:00:08.769Z,20.27
2017-08-14T04:01:19.107Z,20.44
2017-08-14T04:02:29.184Z,20.3
2017-08-14T04:03:39.539Z,20.41
2017-08-14T04:04:49.885Z,20.46
2017-08-14T04:05:59.639Z,20.54
2017-08-14T04:07:09.355Z,20.54
2017-08-14T04:08:19.437Z,20.66
2017-08-14T04:09:29.471Z,20.67
2017-08-14T04:10:39.815Z,20.74
2017-08-14T04:11:50.184Z,20.75
2017-08-14T04:13:00.544Z,20.83
2017-08-14T04:14:10.615Z,20.79
2017-08-14T04:15:20.980Z,20.88
2017-08-14T04:16:31.028Z,20.94
2017-08-14T04:17:41.072Z,20.96
2017-08-14T04:18:51.414Z,21.01
2017-08-14T04:20:01.812Z,21.06
2017-08-14T04:21:12.164Z,21.06
2017-08-14T04:22:22.513Z,21.13
2017-08-14T04:23:32.531Z,21.13
2017-08-14T04:24:42.558Z,21.21
2017-08-14T04:25:52.643Z,21.19
2017-08-14T04:27:02.671Z,21.41
2017-08-14T04:28:12.706Z,21.7
2017-08-14T04:29:23.064Z,21.68
2017-08-14T04:30:32.791Z,21.71
2017-08-14T04:31:43.196Z,21.71
2017-08-14T04:32:53.546Z,21.86
2017-08-14T04:34:03.888Z,21.83
2017-08-14T04:35:14.252Z,21.77
2017-08-14T04:36:24.599Z,21.68
2017-08-14T04:37:35.013Z,21.8
2017-08-14T04:38:45.370Z,21.83
2017-08-14T04:39:55.728Z,21.99
2017-08-14T04:41:05.748Z,22.05
2017-08-14T04:42:16.101Z,22.08
2017-08-14T04:43:26.495Z,21.99
2017-08-14T04:44:36.551Z,22.14
2017-08-14T04:45:46.910Z,22.22
2017-08-14T04:46:56.622Z,22.22
2017-08-14T04:48:06.963Z,22.2
2017-08-14T04:49:16.737Z,22.29
2017-08-14T04:50:27.067Z,22.42
2017-08-14T04:51:37.411Z,22.67
2017-08-14T04:52:47.760Z,23.29
2017-08-14T04:53:58.116Z,24.54
2017-08-14T04:55:08.525Z,25.48
2017-08-14T04:56:18.868Z,26.07
2017-08-14T04:57:29.202Z,26.54
2017-08-14T04:58:40.090Z,26.97
2017-08-14T04:59:50.445Z,27.33
2017-08-14T05:01:00.538Z,27.65
2017-08-14T05:02:10.562Z,27.91
2017-08-14T05:03:20.297Z,28.11
2017-08-14T05:04:30.654Z,28.27
2017-08-14T05:05:40.688Z,28.53
2017-08-14T05:06:50.766Z,28.65
2017-08-14T05:08:01.128Z,28.82
2017-08-14T05:09:11.486Z,29.05
2017-08-14T05:10:21.821Z,29.23
2017-08-14T05:11:32.172Z,29.33
2017-08-14T05:12:41.944Z,29.4
2017-08-14T05:13:52.014Z,29.48
2017-08-14T05:15:02.366Z,29.65
2017-08-14T05:16:12.092Z,29.7
2017-08-14T05:17:22.452Z,29.77
2017-08-14T05:18:32.538Z,29.82
2017-08-14T05:19:42.567Z,29.85
2017-08-14T05:20:52.913Z,29.97
2017-08-14T05:22:02.949Z,29.97
2017-08-14T05:23:13.305Z,30.14
2017-08-14T05:24:23.706Z,30.14
2017-08-14T05:25:33.728Z,30.18
2017-08-14T05:26:44.099Z,30.19
2017-08-14T05:27:54.444Z,30.19
2017-08-14T05:29:04.806Z,30.14
2017-08-14T05:30:14.910Z,30.1
2017-08-14T05:31:25.253Z,30.16
2017-08-14T05:32:35.293Z,30.07
2017-08-14T05:33:45.352Z,29.92
2017-08-14T05:34:55.698Z,29.81
2017-08-14T05:36:05.786Z,29.63
2017-08-14T05:37:16.132Z,29.69
2017-08-14T05:38:26.169Z,29.51
2017-08-14T05:39:36.516Z,29.43
2017-08-14T05:40:46.558Z,29.52
2017-08-14T05:41:56.670Z,29.45
2017-08-14T05:43:07.025Z,29.5
2017-08-14T05:44:16.754Z,29.43
2017-08-14T05:45:26.794Z,29.55
2017-08-14T05:46:37.134Z,29.57
2017-08-14T05:47:47.542Z,29.52
2017-08-14T05:48:57.899Z,29.48
2017-08-14T05:50:08.248Z,29.52
2017-08-14T05:51:18.623Z,29.47
2017-08-14T05:52:28.989Z,29.47
2017-08-14T05:53:39.389Z,29.47
2017-08-14T05:54:49.411Z,29.33
2017-08-14T05:55:59.752Z,29.29
2017-08-14T05:57:10.094Z,28.88
2017-08-14T05:58:20.450Z,28.08
2017-08-14T05:59:30.532Z,27.48
2017-08-14T06:00:40.892Z,27.01
2017-08-14T06:01:51.245Z,26.81
2017-08-14T06:03:01.283Z,26.54
2017-08-14T06:04:11.639Z,26.35
2017-08-14T06:05:22.028Z,26.2
2017-08-14T06:06:32.625Z,26.03
2017-08-14T06:07:42.653Z,25.93
2017-08-14T06:08:53.011Z,25.86
2017-08-14T06:10:03.057Z,25.74
2017-08-14T06:11:13.134Z,25.66
2017-08-14T06:12:23.181Z,25.6
2017-08-14T06:13:33.552Z,25.64
2017-08-14T06:14:43.898Z,25.52
2017-08-14T06:15:53.941Z,25.57
2017-08-14T06:17:04.036Z,25.54
2017-08-14T06:18:14.064Z,25.52
2017-08-14T06:19:24.416Z,25.56
2017-08-14T06:20:34.756Z,25.49
2017-08-14T06:21:45.089Z,25.48
2017-08-14T06:22:55.480Z,25.26
2017-08-14T06:24:05.843Z,25.3
2017-08-14T06:25:16.198Z,25.24
2017-08-14T06:26:26.239Z,25.14
2017-08-14T06:27:36.283Z,25.2
2017-08-14T06:28:48.329Z,25.14
2017-08-14T06:29:58.352Z,25.11
2017-08-14T06:31:08.071Z,25.17
2017-08-14T06:32:18.418Z,25.26
2017-08-14T06:33:28.137Z,25.22
2017-08-14T06:34:38.545Z,25.19
2017-08-14T06:35:48.917Z,25.3
2017-08-14T06:36:59.254Z,25.24
2017-08-14T06:38:09.584Z,25.27
2017-08-14T06:39:19.931Z,25.23
2017-08-14T06:40:30.333Z,25.23
2017-08-14T06:41:40.683Z,25.19
2017-08-14T06:42:50.730Z,25.19
2017-08-14T06:44:01.094Z,25.24
2017-08-14T06:45:11.459Z,25.27
2017-08-14T06:46:21.852Z,25.33
2017-08-14T06:47:31.889Z,25.38
2017-08-14T06:48:42.252Z,25.47
2017-08-14T06:49:52.603Z,25.42
2017-08-14T06:51:02.347Z,25.54
2017-08-14T06:52:12.760Z,25.51
2017-08-14T06:53:23.123Z,25.47
2017-08-14T06:54:33.485Z,25.54
2017-08-14T06:55:43.520Z,25.56
2017-08-14T06:56:53.543Z,25.54
2017-08-14T06:58:03.623Z,25.7
2017-08-14T06:59:13.036Z,25.63
2017-08-14T07:00:23.067Z,25.71
2017-08-14T07:01:33.426Z,25.84
2017-08-14T07:02:43.765Z,25.78
2017-08-14T07:03:54.145Z,25.84
2017-08-14T07:05:04.524Z,25.96
2017-08-14T07:06:14.870Z,25.85
2017-08-14T07:07:25.199Z,25.96
2017-08-14T07:08:35.242Z,25.93
2017-08-14T07:09:45.640Z,26
2017-08-14T07:10:56.011Z,26
2017-08-14T07:12:06.352Z,26.07
2017-08-14T07:13:16.377Z,26.16
2017-08-14T07:14:26.743Z,26.2
2017-08-14T07:15:37.161Z,26.24
2017-08-14T07:16:47.526Z,26.24
2017-08-14T07:17:57.879Z,26.26
2017-08-14T07:19:08.237Z,26.35
2017-08-14T07:20:17.963Z,26.37
2017-08-14T07:21:28.364Z,26.45
2017-08-14T07:22:38.740Z,26.39
2017-08-14T07:23:49.100Z,26.59
2017-08-14T07:24:59.130Z,26.69
2017-08-14T07:26:08.858Z,26.6
2017-08-14T07:27:19.268Z,26.63
2017-08-14T07:28:29.620Z,26.78
2017-08-14T07:29:39.974Z,26.79
2017-08-14T07:30:50.009Z,26.97
2017-08-14T07:32:00.366Z,26.93
2017-08-14T07:33:10.782Z,26.97
2017-08-14T07:34:20.834Z,26.99
2017-08-14T07:35:32.152Z,27.06
2017-08-14T07:36:42.503Z,27.13
2017-08-14T07:37:52.552Z,27.11
2017-08-14T07:39:03.191Z,27.21
2017-08-14T07:40:13.553Z,27.21
2017-08-14T07:41:23.907Z,27.26
2017-08-14T07:42:34.253Z,27.28
2017-08-14T07:43:44.298Z,27.31
2017-08-14T07:44:54.696Z,27.24
2017-08-14T07:46:05.037Z,27.41
2017-08-14T07:47:15.385Z,27.43
2017-08-14T07:48:25.439Z,27.41
2017-08-14T07:49:35.817Z,27.48
2017-08-14T07:50:45.903Z,27.49
2017-08-14T07:51:56.274Z,27.51
2017-08-14T07:53:06.624Z,27.52
2017-08-14T07:54:16.950Z,27.49
2017-08-14T07:55:27.006Z,27.61
2017-08-14T07:56:37.088Z,27.61
2017-08-14T07:57:48.622Z,27.66
2017-08-14T07:58:58.984Z,27.68
2017-08-14T08:00:09.060Z,27.75
2017-08-14T08:01:19.403Z,27.93
2017-08-14T08:02:29.482Z,27.87
2017-08-14T08:03:39.534Z,27.98
2017-08-14T08:04:49.585Z,27.98
2017-08-14T08:05:59.949Z,28.03
2017-08-14T08:07:09.996Z,28.05
2017-08-14T08:08:21.767Z,27.96
2017-08-14T08:09:32.141Z,28.01
2017-08-14T08:10:42.513Z,28.05
2017-08-14T08:11:52.541Z,28.08
2017-08-14T08:13:02.888Z,28.12
2017-08-14T08:14:13.328Z,28.17
2017-08-14T08:15:23.685Z,28.17
2017-08-14T08:16:34.038Z,28.18
2017-08-14T08:17:44.381Z,28.16
2017-08-14T08:18:54.431Z,28.2
2017-08-14T08:20:04.538Z,28.27
2017-08-14T08:21:14.906Z,28.3
2017-08-14T08:22:25.251Z,28.2
2017-08-14T08:23:35.604Z,28.33
2017-08-14T08:24:45.959Z,28.33
2017-08-14T08:25:58.878Z,28.31
2017-08-14T08:27:09.238Z,28.41
2017-08-14T08:28:19.578Z,28.43
2017-08-14T08:29:29.936Z,28.48
2017-08-14T08:30:41.794Z,28.46
2017-08-14T08:31:52.227Z,28.49
2017-08-14T08:33:02.581Z,28.63
2017-08-14T08:34:12.968Z,28.63
2017-08-14T08:35:23.032Z,28.57
2017-08-14T08:36:33.410Z,28.63
2017-08-14T08:37:43.842Z,28.63
2017-08-14T08:38:54.214Z,28.72
2017-08-14T08:40:04.578Z,28.65
2017-08-14T08:41:15.823Z,28.75
2017-08-14T08:42:26.202Z,28.88
2017-08-14T08:43:36.830Z,28.86
2017-08-14T08:44:46.870Z,28.88
2017-08-14T08:45:57.460Z,28.85
2017-08-14T08:47:07.837Z,28.88
2017-08-14T08:48:18.312Z,28.98
2017-08-14T08:49:28.734Z,29.03
2017-08-14T08:50:38.778Z,29.08
2017-08-14T08:51:48.848Z,29.15
2017-08-14T08:52:59.229Z,29.23
2017-08-14T08:54:09.628Z,29.14
2017-08-14T08:55:20.094Z,29.18
2017-08-14T08:56:30.472Z,29.11
2017-08-14T08:57:40.835Z,29.28
2017-08-14T08:58:50.905Z,29.33
2017-08-14T09:00:01.341Z,29.36
2017-08-14T09:01:11.836Z,29.23
2017-08-14T09:02:22.473Z,29.3
2017-08-14T09:03:32.801Z,29.24
2017-08-14T09:04:42.928Z,29.26
2017-08-14T09:05:53.059Z,29.26
2017-08-14T09:07:03.179Z,29.3
2017-08-14T09:08:13.586Z,29.2
2017-08-14T09:09:23.966Z,29.21
2017-08-14T09:10:34.028Z,29.38
2017-08-14T09:11:44.413Z,29.43
2017-08-14T09:12:54.861Z,29.4
2017-08-14T09:14:04.924Z,29.42
2017-08-14T09:15:15.541Z,29.51
2017-08-14T09:16:25.968Z,29.52
2017-08-14T09:17:36.368Z,29.58
2017-08-14T09:18:46.490Z,29.63
2017-08-14T09:19:56.542Z,29.73
2017-08-14T09:21:06.959Z,29.77
2017-08-14T09:22:17.583Z,29.79
2017-08-14T09:23:27.957Z,29.79
2017-08-14T09:24:38.393Z,29.82
2017-08-14T09:25:48.455Z,29.88
2017-08-14T09:26:58.854Z,29.91
2017-08-14T09:28:09.251Z,29.95
2017-08-14T09:29:19.636Z,30.02
2017-08-14T09:30:30.096Z,30.13
2017-08-14T09:31:40.484Z,30.1
2017-08-14T09:32:50.853Z,30.13
2017-08-14T09:34:01.240Z,30.18
2017-08-14T09:35:11.609Z,30.09
2017-08-14T09:36:21.714Z,30.13
2017-08-14T09:37:32.103Z,30.13
2017-08-14T09:38:42.473Z,30.13
2017-08-14T09:39:52.852Z,30.22
2017-08-14T09:41:03.221Z,30.32
2017-08-14T09:42:13.379Z,30.45
2017-08-14T09:43:23.768Z,30.49
2017-08-14T09:44:34.140Z,30.59
2017-08-14T09:45:44.526Z,30.63
2017-08-14T09:46:54.903Z,30.7
2017-08-14T09:48:05.329Z,30.73
2017-08-14T09:49:15.709Z,30.75
2017-08-14T09:50:26.074Z,30.75
2017-08-14T09:51:36.442Z,30.81
2017-08-14T09:52:46.805Z,30.96
2017-08-14T09:53:57.232Z,31.01
2017-08-14T09:55:07.628Z,31.21
2017-08-14T09:56:18.016Z,31.28
2017-08-14T09:57:28.398Z,31.43
2017-08-14T09:58:38.470Z,31.6
2017-08-14T09:59:48.919Z,31.58
2017-08-14T10:00:59.291Z,31.74
2017-08-14T10:02:09.362Z,31.88
2017-08-14T10:03:19.417Z,32.03
2017-08-14T10:04:29.773Z,32.17
2017-08-14T10:05:39.554Z,32.3
2017-08-14T10:06:49.907Z,32.45
2017-08-14T10:07:59.976Z,32.52
2017-08-14T10:09:10.042Z,32.75
2017-08-14T10:10:20.112Z,32.87
2017-08-14T10:11:30.232Z,32.9
2017-08-14T10:12:40.633Z,32.84
2017-08-14T10:13:50.684Z,32.87
2017-08-14T10:15:01.045Z,32.91
2017-08-14T10:16:11.420Z,32.91
2017-08-14T10:17:21.831Z,32.75
2017-08-14T10:18:32.200Z,32.5
2017-08-14T10:19:42.789Z,32.06
2017-08-14T10:20:53.152Z,31.62
2017-08-14T10:22:03.506Z,31.3
2017-08-14T10:23:13.915Z,31.18
2017-08-14T10:24:24.285Z,30.99
2017-08-14T10:25:34.676Z,30.85
2017-08-14T10:26:45.048Z,31.34
2017-08-14T10:27:55.399Z,31.71
2017-08-14T10:29:05.498Z,31.98
2017-08-14T10:30:15.563Z,32.3
2017-08-14T10:31:27.094Z,32.49
2017-08-14T10:32:37.155Z,32.62
2017-08-14T10:33:47.511Z,32.84
2017-08-14T10:34:57.608Z,33.11
2017-08-14T10:36:08.010Z,33.18
2017-08-14T10:37:18.402Z,33.37
2017-08-14T10:38:28.147Z,33.46
2017-08-14T10:39:40.615Z,33.55
2017-08-14T10:40:51.043Z,33.55
2017-08-14T10:42:01.109Z,33.56
2017-08-14T10:43:11.484Z,33.61
2017-08-14T10:44:21.543Z,33.63
2017-08-14T10:45:31.915Z,33.69
2017-08-14T10:46:41.395Z,33.71
2017-08-14T10:47:51.759Z,33.68
2017-08-14T10:49:04.373Z,33.52
2017-08-14T10:50:14.737Z,33.47
2017-08-14T10:51:24.797Z,33.5
2017-08-14T10:52:35.200Z,33.37
2017-08-14T10:53:45.580Z,33.36
2017-08-14T10:54:55.617Z,33.31
2017-08-14T10:56:05.960Z,33.32
2017-08-14T10:57:16.019Z,33.32
2017-08-14T10:58:26.118Z,33.18
2017-08-14T10:59:36.500Z,33.26
2017-08-14T11:00:46.859Z,33.2
2017-08-14T11:01:57.247Z,33.21
2017-08-14T11:03:07.605Z,33.21
2017-08-14T11:04:18.012Z,33.18
2017-08-14T11:05:28.079Z,33.18
2017-08-14T11:06:38.437Z,33.12
2017-08-14T11:07:48.781Z,33.01
2017-08-14T11:08:59.123Z,33.17
2017-08-14T11:10:09.211Z,33.05
2017-08-14T11:11:19.581Z,33.05
2017-08-14T11:12:29.957Z,32.98
2017-08-14T11:13:40.429Z,33.16
2017-08-14T11:14:50.859Z,33.13
2017-08-14T11:16:01.287Z,33.24
2017-08-14T11:17:13.561Z,33.37
2017-08-14T11:18:23.937Z,33.58
2017-08-14T11:19:34.310Z,33.61
2017-08-14T11:20:44.697Z,33.71
2017-08-14T11:21:56.198Z,33.89
2017-08-14T11:23:06.578Z,33.84
2017-08-14T11:24:16.957Z,33.9
2017-08-14T11:25:27.315Z,33.93
2017-08-14T11:26:37.653Z,33.9
2017-08-14T11:27:48.085Z,33.96
2017-08-14T11:28:58.135Z,33.97
2017-08-14T11:30:08.495Z,34.03
2017-08-14T11:31:18.543Z,33.97
2017-08-14T11:32:28.586Z,33.97
2017-08-14T11:33:39.007Z,34.03
2017-08-14T11:34:50.316Z,34.11
2017-08-14T11:36:00.409Z,34.12
2017-08-14T11:37:10.790Z,34.11
2017-08-14T11:38:21.175Z,34.19
2017-08-14T11:39:31.587Z,34.26
2017-08-14T11:40:41.983Z,34.3
2017-08-14T11:41:54.248Z,34.29
2017-08-14T11:43:04.599Z,34.26
2017-08-14T11:44:16.632Z,34.21
2017-08-14T11:45:27.102Z,34.22
2017-08-14T11:46:37.476Z,34.18
2017-08-14T11:47:47.546Z,34.19
2017-08-14T11:48:57.896Z,34.24
2017-08-14T11:50:07.992Z,34.34
2017-08-14T11:51:18.420Z,34.37
2017-08-14T11:52:28.774Z,34.46
2017-08-14T11:53:39.131Z,34.41
2017-08-14T11:54:49.505Z,34.37
2017-08-14T11:55:59.878Z,34.43
2017-08-14T11:57:10.290Z,34.49
2017-08-14T11:58:21.819Z,34.36
2017-08-14T11:59:31.875Z,34.14
2017-08-14T12:00:43.033Z,33.61
2017-08-14T12:01:53.341Z,33.2
2017-08-14T12:03:03.806Z,32.67
2017-08-14T12:04:14.406Z,32.46
2017-08-14T12:05:24.755Z,32.15
2017-08-14T12:06:35.128Z,31.97
2017-08-14T12:07:45.557Z,31.8
2017-08-14T12:08:55.987Z,31.7
2017-08-14T12:10:06.343Z,31.59
2017-08-14T12:11:16.716Z,31.53
2017-08-14T12:12:27.076Z,31.49
2017-08-14T12:13:37.469Z,31.58
2017-08-14T12:14:47.579Z,31.59
2017-08-14T12:15:57.655Z,31.53
2017-08-14T12:17:08.058Z,31.87
2017-08-14T12:18:18.423Z,31.72
2017-08-14T12:19:28.788Z,31.8
2017-08-14T12:20:41.558Z,31.8
2017-08-14T12:21:51.632Z,32.42
2017-08-14T12:23:01.706Z,32.3
2017-08-14T12:24:12.075Z,32.1
2017-08-14T12:25:22.449Z,31.87
2017-08-14T12:26:32.587Z,31.78
2017-08-14T12:27:42.966Z,31.81
2017-08-14T12:28:53.003Z,31.78
2017-08-14T12:30:05.381Z,31.86
2017-08-14T12:31:17.769Z,32.59
2017-08-14T12:32:27.861Z,33.09
2017-08-14T12:33:37.914Z,33.48
2017-08-14T12:34:47.960Z,33.84
2017-08-14T12:35:58.322Z,34.08
2017-08-14T12:37:08.720Z,34.21
2017-08-14T12:38:19.129Z,33.92
2017-08-14T12:39:29.501Z,33.81
2017-08-14T12:40:39.877Z,34.19
2017-08-14T12:41:50.273Z,34.41
2017-08-14T12:43:00.705Z,34.66
2017-08-14T12:44:10.752Z,34.84
2017-08-14T12:45:21.114Z,34.97
2017-08-14T12:46:31.473Z,35.09
2017-08-14T12:47:41.535Z,35.11
2017-08-14T12:48:51.962Z,35.21
2017-08-14T12:50:02.031Z,35.31
2017-08-14T12:51:12.401Z,35.3
2017-08-14T12:52:24.235Z,35.46
2017-08-14T12:53:34.614Z,35.53
2017-08-14T12:54:45.030Z,35.67
2017-08-14T12:55:55.374Z,35.82
2017-08-14T12:57:05.420Z,35.9
2017-08-14T12:58:15.193Z,35.98
2017-08-14T12:59:25.548Z,35.92
2017-08-14T13:00:35.669Z,36.09
2017-08-14T13:01:45.718Z,36.08
2017-08-14T13:02:55.788Z,36.06
2017-08-14T13:04:06.143Z,36.19
2017-08-14T13:05:16.501Z,36.06
2017-08-14T13:06:26.609Z,35.94
2017-08-14T13:07:36.685Z,35.82
2017-08-14T13:08:47.069Z,35.62
2017-08-14T13:09:57.116Z,35.39
2017-08-14T13:11:07.471Z,34.84
2017-08-14T13:12:17.891Z,34.4
2017-08-14T13:13:28.259Z,34.11
2017-08-14T13:14:38.638Z,33.77
2017-08-14T13:15:48.680Z,33.53
2017-08-14T13:16:59.048Z,33.36
2017-08-14T13:18:09.112Z,33.34
2017-08-14T13:19:19.493Z,33.39
2017-08-14T13:20:29.271Z,33.62
2017-08-14T13:21:39.368Z,33.87
2017-08-14T13:22:49.733Z,33.83
2017-08-14T13:23:59.792Z,33.81
2017-08-14T13:25:10.154Z,33.84
2017-08-14T13:26:19.946Z,33.61
2017-08-14T13:27:33.138Z,33.23
2017-08-14T13:28:43.505Z,32.91
2017-08-14T13:29:55.490Z,33.05
2017-08-14T13:31:05.851Z,33.11
2017-08-14T13:32:16.258Z,33.05
2017-08-14T13:33:26.626Z,33.36
2017-08-14T13:34:36.982Z,33.63
2017-08-14T13:35:46.707Z,33.73
2017-08-14T13:36:57.082Z,33.97
2017-08-14T13:38:07.504Z,34.02
2017-08-14T13:39:17.868Z,34.15
2017-08-14T13:40:28.252Z,34.22
2017-08-14T13:41:39.369Z,34.37
2017-08-14T13:42:49.736Z,34.49
2017-08-14T13:44:01.767Z,34.56
2017-08-14T13:45:12.142Z,34.72
2017-08-14T13:46:22.217Z,34.79
2017-08-14T13:47:32.266Z,34.93
2017-08-14T13:48:51.375Z,34.97
2017-08-14T13:50:01.816Z,34.96
2017-08-14T13:51:12.175Z,35.02
2017-08-14T13:52:22.248Z,35.04
2017-08-14T13:53:32.619Z,35.15
2017-08-14T13:54:43.048Z,35.2
2017-08-14T13:55:53.118Z,35.33
2017-08-14T13:57:03.529Z,35.31
2017-08-14T13:58:15.875Z,35.24
2017-08-14T13:59:25.933Z,35.38
2017-08-14T14:00:36.371Z,35.21
2017-08-14T14:01:46.758Z,35.38
2017-08-14T14:02:57.126Z,35.27
2017-08-14T14:04:07.225Z,35.33
2017-08-14T14:05:17.580Z,35.31
2017-08-14T14:06:28.024Z,35.34
2017-08-14T14:07:38.399Z,35.39
2017-08-14T14:08:48.791Z,35.28
2017-08-14T14:09:59.151Z,35.39
2017-08-14T14:11:09.534Z,35.35
2017-08-14T14:12:21.919Z,35.34
2017-08-14T14:13:32.291Z,35.28
2017-08-14T14:14:42.655Z,35.33
2017-08-14T14:15:53.032Z,35.24
2017-08-14T14:17:03.086Z,35.24
2017-08-14T14:18:13.192Z,35.21
2017-08-14T14:19:23.564Z,35.15
2017-08-14T14:20:33.915Z,35.02
2017-08-14T14:21:43.980Z,35.05
2017-08-14T14:22:54.353Z,35.06
2017-08-14T14:24:04.806Z,35.05
2017-08-14T14:25:15.174Z,34.96
2017-08-14T14:26:25.541Z,34.9
2017-08-14T14:27:35.896Z,34.93
2017-08-14T14:28:46.262Z,35.01
2017-08-14T14:29:56.678Z,35.02
2017-08-14T14:31:07.057Z,35.05
2017-08-14T14:32:17.440Z,35.05
2017-08-14T14:33:27.474Z,34.94
2017-08-14T14:34:38.082Z,34.87
2017-08-14T14:35:48.507Z,34.94
2017-08-14T14:36:58.857Z,34.93
2017-08-14T14:38:08.900Z,34.89
2017-08-14T14:39:19.254Z,34.86
2017-08-14T14:40:29.316Z,34.96
2017-08-14T14:41:39.735Z,35.02
2017-08-14T14:42:49.796Z,34.93
2017-08-14T14:44:04.897Z,35.02
2017-08-14T14:45:14.950Z,34.84
2017-08-14T14:46:25.320Z,34.83
2017-08-14T14:47:35.749Z,34.78
2017-08-14T14:48:46.139Z,34.64
2017-08-14T14:49:57.240Z,34.66
2017-08-14T14:51:07.302Z,34.63
2017-08-14T14:52:17.658Z,34.71
2017-08-14T14:53:28.075Z,34.72
2017-08-14T14:54:38.127Z,34.83
2017-08-14T14:55:47.543Z,34.9
2017-08-14T14:56:57.933Z,34.91
2017-08-14T14:58:08.333Z,34.9
2017-08-14T14:59:18.751Z,34.93
2017-08-14T15:00:29.115Z,34.83
2017-08-14T15:01:39.490Z,34.86
2017-08-14T15:02:49.870Z,34.75
2017-08-14T15:04:00.264Z,34.67
2017-08-14T15:05:10.703Z,34.56
2017-08-14T15:06:21.066Z,34.56
2017-08-14T15:07:31.427Z,34.56
2017-08-14T15:08:41.486Z,34.49
2017-08-14T15:09:51.854Z,34.48
2017-08-14T15:11:01.947Z,34.33
2017-08-14T15:12:11.682Z,34.4
2017-08-14T15:13:22.066Z,34.24
2017-08-14T15:14:32.446Z,34.08
2017-08-14T15:15:42.795Z,33.92
2017-08-14T15:16:53.216Z,33.68
2017-08-14T15:18:03.578Z,33.58
2017-08-14T15:19:13.628Z,33.58
2017-08-14T15:20:23.981Z,33.53
2017-08-14T15:21:34.363Z,33.29
2017-08-14T15:22:45.484Z,33.21
2017-08-14T15:23:55.522Z,33.17
2017-08-14T15:25:05.581Z,33.37
2017-08-14T15:26:15.954Z,33.44
2017-08-14T15:27:26.321Z,33.44
2017-08-14T15:28:36.730Z,33.41
2017-08-14T15:29:46.794Z,33.4
2017-08-14T15:30:56.851Z,33.36
2017-08-14T15:32:06.879Z,33.31
2017-08-14T15:33:16.947Z,33.34
2017-08-14T15:34:27.093Z,33.24
2017-08-14T15:35:36.822Z,33.26
2017-08-14T15:36:46.867Z,33.18
2017-08-14T15:37:57.256Z,33.16
2017-08-14T15:39:07.639Z,33.06